createdAt,value
2022-11-22T00:00:50.837Z,36.00
2022-11-22T00:03:20.780Z,33.00
2022-11-22T00:05:48.633Z,33.00
2022-11-22T00:08:17.434Z,33.00
2022-11-22T00:10:45.258Z,38.00
2022-11-22T00:15:43.039Z,56.00
2022-11-22T00:20:38.782Z,42.00
2022-11-22T00:25:34.451Z,48.00
2022-11-22T00:28:02.239Z,55.50
2022-11-22T00:30:30.071Z,56.00
2022-11-22T00:35:25.714Z,49.50
2022-11-22T00:37:53.629Z,58.00
2022-11-22T00:40:21.856Z,22.00
2022-11-22T00:45:17.505Z,49.00
2022-11-22T00:47:45.580Z,58.00
2022-11-22T00:52:41.213Z,58.00
2022-11-22T00:55:09.087Z,49.50
2022-11-22T01:00:06.976Z,49.00
2022-11-22T01:05:02.654Z,57.00
2022-11-22T01:07:30.676Z,58.00
2022-11-22T01:09:58.567Z,47.50
2022-11-22T01:12:26.481Z,56.00
2022-11-22T01:14:54.309Z,54.50
2022-11-22T01:17:22.286Z,39.00
2022-11-22T01:19:51.129Z,58.00
2022-11-22T01:22:19.173Z,52.50
2022-11-22T01:24:46.958Z,55.50
2022-11-22T01:29:42.629Z,52.00
2022-11-22T01:32:10.422Z,54.00
2022-11-22T01:37:06.024Z,54.00
2022-11-22T01:39:33.896Z,22.00
2022-11-22T01:42:02.845Z,54.00
2022-11-22T01:44:32.365Z,52.50
2022-11-22T01:47:24.149Z,58.00
2022-11-22T01:49:55.036Z,43.00
2022-11-22T01:52:28.627Z,46.00
2022-11-22T01:55:00.768Z,41.00
2022-11-22T01:57:33.176Z,45.50
2022-11-22T02:00:08.480Z,39.00
2022-11-22T02:05:17.549Z,48.00
2022-11-22T02:07:58.061Z,42.00
2022-11-22T02:10:29.340Z,53.00
2022-11-22T02:12:59.734Z,48.00
2022-11-22T02:17:58.184Z,36.00
2022-11-22T02:23:31.829Z,38.50
2022-11-22T02:26:01.452Z,37.00
2022-11-22T02:28:34.290Z,47.00
2022-11-22T02:33:30.937Z,43.00
2022-11-22T02:35:59.341Z,35.00
2022-11-22T02:38:32.645Z,49.50
2022-11-22T02:41:08.835Z,52.00
2022-11-22T02:43:40.295Z,55.00
2022-11-22T02:46:11.696Z,48.00
2022-11-22T02:48:45.784Z,42.00
2022-11-22T02:51:17.169Z,42.00
2022-11-22T02:53:50.388Z,40.00
2022-11-22T02:56:18.283Z,45.00
2022-11-22T02:58:46.404Z,45.00
2022-11-22T03:01:14.461Z,41.50
2022-11-22T03:06:10.368Z,45.50
2022-11-22T03:11:06.043Z,52.00
2022-11-22T03:13:33.921Z,41.00
2022-11-22T03:16:01.910Z,53.00
2022-11-22T03:18:29.843Z,37.00
2022-11-22T03:21:02.685Z,47.00
2022-11-22T03:23:31.265Z,46.00
2022-11-22T03:25:59.638Z,50.50
2022-11-22T03:28:27.476Z,51.00
2022-11-22T03:30:55.290Z,36.00
2022-11-22T03:33:24.122Z,35.00
2022-11-22T03:35:56.697Z,35.00
2022-11-22T03:38:24.620Z,41.50
2022-11-22T03:40:53.580Z,38.00
2022-11-22T03:45:49.540Z,37.00
2022-11-22T03:50:46.173Z,27.00
2022-11-22T03:53:14.404Z,32.00
2022-11-22T03:55:42.174Z,37.00
2022-11-22T03:58:10.143Z,35.00
2022-11-22T04:00:38.078Z,31.00
2022-11-22T04:03:07.934Z,34.00
2022-11-22T04:05:35.877Z,31.00
2022-11-22T04:08:04.899Z,32.00
2022-11-22T04:10:32.790Z,28.00
2022-11-22T04:13:00.856Z,36.00
2022-11-22T04:15:28.681Z,34.50
2022-11-22T04:23:14.505Z,29.50
2022-11-22T04:25:44.832Z,30.00
2022-11-22T04:28:14.581Z,39.00
2022-11-22T04:31:01.950Z,25.00
2022-11-22T04:33:30.638Z,25.50
2022-11-22T04:35:58.473Z,38.50
2022-11-22T04:38:26.816Z,29.67
2022-11-22T04:43:44.712Z,39.00
2022-11-22T04:46:14.273Z,33.00
2022-11-22T04:48:42.648Z,43.00
2022-11-22T04:56:28.025Z,36.00
2022-11-22T04:58:55.876Z,34.50
2022-11-22T05:01:23.817Z,39.00
2022-11-22T05:03:52.791Z,44.00
2022-11-22T05:06:20.646Z,38.00
2022-11-22T05:11:18.516Z,43.00
2022-11-22T05:13:46.469Z,32.00
2022-11-22T05:16:17.550Z,29.00
2022-11-22T05:21:29.900Z,33.50
2022-11-22T05:23:57.721Z,29.00
2022-11-22T05:26:36.384Z,28.00
2022-11-22T05:29:07.140Z,32.00
2022-11-22T05:31:37.386Z,32.00
2022-11-22T05:36:34.671Z,32.00
2022-11-22T05:41:31.032Z,23.00
2022-11-22T05:43:59.310Z,36.00
2022-11-22T05:46:29.077Z,32.00
2022-11-22T05:48:58.516Z,36.50
2022-11-22T05:51:33.992Z,27.50
2022-11-22T05:54:03.070Z,30.00
2022-11-22T05:56:31.090Z,30.00
2022-11-22T06:01:27.056Z,34.00
2022-11-22T06:03:54.965Z,36.50
2022-11-22T06:06:23.055Z,32.00
2022-11-22T06:08:51.721Z,41.00
2022-11-22T06:11:25.487Z,41.00
2022-11-22T06:16:23.094Z,44.00
2022-11-22T06:21:23.709Z,29.50
2022-11-22T06:26:24.789Z,33.00
2022-11-22T06:28:54.456Z,40.00
2022-11-22T06:31:27.507Z,32.00
2022-11-22T06:33:57.854Z,37.00
2022-11-22T06:36:34.576Z,34.00
2022-11-22T06:39:03.976Z,37.00
2022-11-22T06:41:34.975Z,48.00
2022-11-22T06:49:04.659Z,44.00
2022-11-22T06:51:33.445Z,45.00
2022-11-22T06:59:04.046Z,38.50
2022-11-22T07:01:34.087Z,24.00
2022-11-22T07:04:03.458Z,49.00
2022-11-22T07:06:37.344Z,43.00
2022-11-22T07:09:10.801Z,37.00
2022-11-22T07:14:09.103Z,40.00
2022-11-22T07:16:38.770Z,33.00
2022-11-22T07:21:36.757Z,41.50
2022-11-22T07:31:28.859Z,46.00
2022-11-22T07:33:58.011Z,46.50
2022-11-22T07:41:27.553Z,45.00
2022-11-22T07:43:55.820Z,47.00
2022-11-22T07:48:54.288Z,31.00
2022-11-22T07:51:22.131Z,46.00
2022-11-22T07:58:47.701Z,43.00
2022-11-22T08:03:46.460Z,43.50
2022-11-22T08:06:15.588Z,34.00
2022-11-22T08:08:45.061Z,41.00
2022-11-22T08:11:13.033Z,52.50
2022-11-22T08:13:41.821Z,47.00
2022-11-22T08:16:13.387Z,19.00
2022-11-22T08:18:45.491Z,48.00
2022-11-22T08:23:44.313Z,51.00
2022-11-22T08:28:43.141Z,48.50
2022-11-22T08:36:10.109Z,49.00
2022-11-22T08:38:38.488Z,59.00
2022-11-22T08:41:07.119Z,50.00
2022-11-22T08:43:35.343Z,53.00
2022-11-22T08:46:05.786Z,49.00
2022-11-22T08:48:36.625Z,39.00
2022-11-22T08:51:09.788Z,34.00
2022-11-22T08:53:40.402Z,36.00
2022-11-22T08:56:12.166Z,42.00
2022-11-22T08:58:40.611Z,37.00
2022-11-22T09:03:38.428Z,42.00
2022-11-22T09:09:22.137Z,36.00
2022-11-22T09:14:15.156Z,32.00
2022-11-22T09:16:43.100Z,31.00
2022-11-22T09:19:11.104Z,36.00
2022-11-22T09:21:38.975Z,30.00
2022-11-22T09:24:07.068Z,19.00
2022-11-22T09:26:35.277Z,32.00
2022-11-22T09:29:03.310Z,34.00
2022-11-22T09:33:59.724Z,28.00
2022-11-22T09:36:27.744Z,37.50
2022-11-22T09:38:57.843Z,30.00
2022-11-22T09:41:39.610Z,32.00
2022-11-22T09:44:17.920Z,38.00
2022-11-22T09:47:04.142Z,32.50
2022-11-22T09:49:57.892Z,33.50
2022-11-22T09:52:33.420Z,31.00
2022-11-22T09:55:07.128Z,37.50
2022-11-22T09:58:16.734Z,29.00
2022-11-22T10:00:52.025Z,24.50
2022-11-22T10:03:29.207Z,29.00
2022-11-22T10:06:03.348Z,24.00
2022-11-22T10:08:52.341Z,24.50
2022-11-22T10:14:36.428Z,29.00
2022-11-22T10:17:07.309Z,28.00
2022-11-22T10:19:41.729Z,24.50
2022-11-22T10:22:14.442Z,27.00
2022-11-22T10:24:43.652Z,32.00
2022-11-22T10:27:14.498Z,30.00
2022-11-22T10:29:57.127Z,26.50
2022-11-22T10:32:38.083Z,23.00
2022-11-22T10:35:33.158Z,32.00
2022-11-22T10:38:37.905Z,24.00
2022-11-22T10:41:12.157Z,27.50
2022-11-22T10:44:05.046Z,28.00
2022-11-22T10:49:06.601Z,31.00
2022-11-22T10:52:09.748Z,23.00
2022-11-22T11:00:09.378Z,19.00
2022-11-22T11:02:58.982Z,23.00
2022-11-22T11:09:12.343Z,18.00
2022-11-22T11:11:30.398Z,22.00
2022-11-22T11:14:08.719Z,14.00
2022-11-22T11:16:38.910Z,18.50
2022-11-22T11:19:25.581Z,20.00
2022-11-22T11:22:30.464Z,19.00
2022-11-22T11:25:30.261Z,15.00
2022-11-22T11:28:04.077Z,12.00
2022-11-22T11:30:55.868Z,13.00
2022-11-22T11:33:32.911Z,10.00
2022-11-22T11:38:52.565Z,8.00
2022-11-22T11:41:22.225Z,6.00
2022-11-22T11:46:27.455Z,8.00
2022-11-22T11:49:08.368Z,8.00
2022-11-22T11:51:57.226Z,6.00
2022-11-22T11:54:29.587Z,5.50
2022-11-22T11:57:01.373Z,7.00
2022-11-22T11:59:38.467Z,7.00
2022-11-22T12:02:24.763Z,6.00
2022-11-22T12:04:55.961Z,6.00
2022-11-22T12:10:42.617Z,9.00
2022-11-22T12:13:35.306Z,10.00
2022-11-22T12:16:22.598Z,8.00
2022-11-22T12:19:24.403Z,7.50
2022-11-22T12:22:10.370Z,11.00
2022-11-22T12:27:42.420Z,9.00
2022-11-22T12:30:14.119Z,12.00
2022-11-22T12:32:50.531Z,12.00
2022-11-22T12:35:25.600Z,16.00
2022-11-22T12:40:44.388Z,14.00
2022-11-22T12:43:16.835Z,14.00
2022-11-22T12:45:50.374Z,11.00
2022-11-22T12:48:28.189Z,12.00
2022-11-22T12:51:03.305Z,8.00
2022-11-22T12:53:36.099Z,10.50
2022-11-22T12:56:10.275Z,9.50
2022-11-22T12:58:38.320Z,10.00
2022-11-22T13:01:12.183Z,11.00
2022-11-22T13:03:57.526Z,7.50
2022-11-22T13:06:33.384Z,8.00
2022-11-22T13:09:08.273Z,7.00
2022-11-22T13:11:45.350Z,6.00
2022-11-22T13:14:21.394Z,12.50
2022-11-22T13:16:53.393Z,11.00
2022-11-22T13:19:25.959Z,7.00
2022-11-22T13:22:09.471Z,11.50
2022-11-22T13:24:37.505Z,9.00
2022-11-22T13:29:35.801Z,9.00
2022-11-22T13:32:06.014Z,13.00
2022-11-22T13:37:17.176Z,8.00
2022-11-22T13:39:47.933Z,10.00
2022-11-22T13:42:28.053Z,11.00
2022-11-22T13:44:55.887Z,12.50
2022-11-22T13:47:43.340Z,12.00
2022-11-22T13:50:36.422Z,12.00
2022-11-22T13:53:27.507Z,15.00
2022-11-22T13:55:58.665Z,14.00
2022-11-22T13:58:27.755Z,13.00
2022-11-22T14:01:00.058Z,14.50
2022-11-22T14:03:44.140Z,16.00
2022-11-22T14:06:32.685Z,16.00
2022-11-22T14:12:18.740Z,12.50
2022-11-22T14:15:31.002Z,15.00
2022-11-22T14:21:10.045Z,19.00
2022-11-22T14:24:03.602Z,21.00
2022-11-22T14:26:54.795Z,16.50
2022-11-22T14:29:41.751Z,18.00
2022-11-22T14:32:21.025Z,18.00
2022-11-22T14:35:04.276Z,19.50
2022-11-22T14:37:32.641Z,23.00
2022-11-22T14:40:13.525Z,22.00
2022-11-22T14:45:11.739Z,22.00
2022-11-22T14:52:59.531Z,19.00
2022-11-22T14:55:33.521Z,23.00
2022-11-22T14:58:08.595Z,20.00
2022-11-22T15:01:20.427Z,26.00
2022-11-22T15:10:06.556Z,25.00
2022-11-22T15:12:47.598Z,23.00
2022-11-22T15:57:54.538Z,35.00
2022-11-22T16:00:28.862Z,32.00
2022-11-22T16:11:01.535Z,35.00
2022-11-22T16:13:34.935Z,36.00
2022-11-22T16:16:19.864Z,36.50
2022-11-22T16:18:48.972Z,35.00
2022-11-22T16:21:16.773Z,35.00
2022-11-22T16:23:45.786Z,36.00
2022-11-22T16:26:31.688Z,36.00
2022-11-22T16:29:25.588Z,28.00
2022-11-22T16:32:03.618Z,31.00
2022-11-22T16:37:01.943Z,30.50
2022-11-22T16:39:30.765Z,25.00
2022-11-22T16:41:59.026Z,29.00
2022-11-22T16:44:27.177Z,25.00
2022-11-22T16:49:23.156Z,33.00
2022-11-22T16:51:55.900Z,32.00
2022-11-22T16:54:26.080Z,30.00
2022-11-22T16:56:58.748Z,26.00
2022-11-22T16:59:26.727Z,28.00
2022-11-22T17:01:54.796Z,26.00
2022-11-22T17:04:26.442Z,33.00
2022-11-22T17:11:58.975Z,32.50
2022-11-22T17:14:26.979Z,30.00
2022-11-22T17:19:52.753Z,34.00
2022-11-22T17:27:15.713Z,35.00
2022-11-22T17:32:20.485Z,30.00
2022-11-22T17:34:49.498Z,29.00
2022-11-22T17:42:20.317Z,37.00
2022-11-22T17:44:50.037Z,25.50
2022-11-22T17:47:17.985Z,37.00
2022-11-22T17:49:46.052Z,29.00
2022-11-22T17:52:14.225Z,31.00
2022-11-22T17:54:42.074Z,32.50
2022-11-22T17:57:15.868Z,32.00
2022-11-22T17:59:45.130Z,37.00
2022-11-22T18:02:13.172Z,32.50
2022-11-22T18:04:44.508Z,35.00
2022-11-22T18:07:12.762Z,35.00
2022-11-22T18:09:40.893Z,37.00
2022-11-22T18:12:08.909Z,36.00
2022-11-22T18:14:37.762Z,33.00
2022-11-22T18:19:35.565Z,38.67
2022-11-22T18:22:03.683Z,30.00
2022-11-22T18:24:32.863Z,42.00
2022-11-22T18:27:00.756Z,37.50
2022-11-22T18:29:42.088Z,40.50
2022-11-22T18:32:13.626Z,32.00
2022-11-22T18:34:43.870Z,36.00
2022-11-22T18:37:11.933Z,32.00
2022-11-22T18:42:16.408Z,34.00
2022-11-22T18:44:44.781Z,30.00
2022-11-22T18:47:13.876Z,34.00
2022-11-22T18:49:42.130Z,35.00
2022-11-22T18:54:47.399Z,33.00
2022-11-22T18:57:18.803Z,29.00
2022-11-22T18:59:46.631Z,33.00
2022-11-22T19:04:46.449Z,38.00
2022-11-22T19:07:14.977Z,32.00
2022-11-22T19:09:43.148Z,37.00
2022-11-22T19:14:40.589Z,35.50
2022-11-22T19:22:06.760Z,40.00
2022-11-22T19:24:34.830Z,34.00
2022-11-22T19:27:04.103Z,39.50
2022-11-22T19:32:00.713Z,31.00
2022-11-22T19:37:00.477Z,22.00
2022-11-22T19:39:28.811Z,33.00
2022-11-22T19:41:57.070Z,30.00
2022-11-22T19:44:25.118Z,27.50
2022-11-22T19:46:54.165Z,34.00
2022-11-22T19:54:18.075Z,34.00
2022-11-22T19:56:47.347Z,31.00
2022-11-22T19:59:17.233Z,28.50
2022-11-22T20:01:45.586Z,34.00
2022-11-22T20:04:15.612Z,31.00
2022-11-22T20:06:48.652Z,35.00
2022-11-22T20:09:18.507Z,33.00
2022-11-22T20:11:47.042Z,34.50
2022-11-22T20:14:15.364Z,28.00
2022-11-22T20:19:12.537Z,29.00
2022-11-22T20:21:41.720Z,28.00
2022-11-22T20:24:10.009Z,25.00
2022-11-22T20:26:38.027Z,27.00
2022-11-22T20:29:12.148Z,28.00
2022-11-22T20:36:37.421Z,23.00
2022-11-22T20:39:10.620Z,24.00
2022-11-22T20:41:40.516Z,21.00
2022-11-22T20:46:40.809Z,21.00
2022-11-22T20:49:09.098Z,23.50
2022-11-22T20:51:39.889Z,22.50
2022-11-22T20:54:08.752Z,19.00
2022-11-22T20:56:38.067Z,17.00
2022-11-22T20:59:06.059Z,30.00
2022-11-22T21:01:34.199Z,33.00
2022-11-22T21:04:02.280Z,28.00
2022-11-22T21:06:32.672Z,21.50
2022-11-22T21:09:00.628Z,24.00
2022-11-22T21:11:31.164Z,27.00
2022-11-22T21:13:59.579Z,22.00
2022-11-22T21:16:29.728Z,30.00
2022-11-22T21:19:05.127Z,31.00
2022-11-22T21:21:35.955Z,27.00
2022-11-22T21:24:05.914Z,28.00
2022-11-22T21:26:34.533Z,28.00
2022-11-22T21:31:32.263Z,33.50
2022-11-22T21:34:03.945Z,22.00
2022-11-22T21:36:32.884Z,27.00
2022-11-22T21:39:01.195Z,30.00
2022-11-22T21:41:45.613Z,26.00
2022-11-22T21:44:15.746Z,29.00
2022-11-22T21:46:44.082Z,28.50
2022-11-22T21:49:12.278Z,28.00
2022-11-22T21:51:40.204Z,24.00
2022-11-22T21:54:08.355Z,33.00
2022-11-22T21:56:38.445Z,33.50
2022-11-22T21:59:06.463Z,30.00
2022-11-22T22:01:34.332Z,26.00
2022-11-22T22:04:03.170Z,36.50
2022-11-22T22:06:32.615Z,31.00
2022-11-22T22:09:00.593Z,35.50
2022-11-22T22:16:26.418Z,27.00
2022-11-22T22:18:54.625Z,27.00
2022-11-22T22:21:22.534Z,35.00
2022-11-22T22:23:50.454Z,30.00
2022-11-22T22:26:18.535Z,28.00
2022-11-22T22:28:48.550Z,34.00
2022-11-22T22:31:22.558Z,27.00
2022-11-22T22:33:56.034Z,32.00
2022-11-22T22:36:26.157Z,27.50
2022-11-22T22:38:55.226Z,24.50
2022-11-22T22:41:23.451Z,20.00
2022-11-22T22:43:51.447Z,27.00
2022-11-22T22:46:22.137Z,27.50
2022-11-22T22:48:51.949Z,27.00
2022-11-22T22:51:27.574Z,32.00
2022-11-22T22:53:58.601Z,30.00
2022-11-22T22:56:28.684Z,23.00
2022-11-22T22:58:58.306Z,23.50
2022-11-22T23:01:29.188Z,33.00
2022-11-22T23:06:31.768Z,28.50
2022-11-22T23:09:00.616Z,35.00
2022-11-22T23:11:50.302Z,30.00
2022-11-22T23:14:21.263Z,27.50
2022-11-22T23:16:54.496Z,31.00
2022-11-22T23:19:24.540Z,25.00
2022-11-22T23:21:52.653Z,27.50
2022-11-22T23:24:20.973Z,28.00
2022-11-22T23:26:48.981Z,22.00
2022-11-22T23:29:17.031Z,23.00
2022-11-22T23:31:44.927Z,30.50
2022-11-22T23:36:41.331Z,29.00
2022-11-22T23:39:09.967Z,29.50
2022-11-22T23:41:37.872Z,29.00
2022-11-22T23:44:06.061Z,35.00
2022-11-22T23:46:35.270Z,32.00
2022-11-22T23:49:05.347Z,32.00
2022-11-22T23:51:35.130Z,27.00
2022-11-22T23:54:05.791Z,25.50
2022-11-22T23:56:34.913Z,22.00
2022-11-22T23:59:05.211Z,28.00
